F/V Liberty-s — FHKM — position and weather

sailwx.info

Track history (hours):
 
Tides and Currents Weather Stations Pressure Air Temp Water Temp Dewpoint Dewpoint Depression Visibility Wind Speed Wind Dir Waves Ship Positions

F/V Liberty-s

Last reported at 2017-Nov-20 00:29 UTC. Time now 2017-Nov-20 23:10 UTC.
Position N 47°46' W 003°55'.

Type: Fishing. MMSI: 228387000.

Date/timePositionNaut miles runAvg speedWind from/ knotsBaromVisibWave heightAir tempDewpointWater temp
2017-Nov-20 00:29N 47°46' W 003°55'4 7.6
2017-Nov-20 00:00N 47°50' W 003°56'2 1.1
2017-Nov-19 22:11N 47°52' W 003°55'1 8.2
2017-Nov-19 22:00N 47°51' W 003°56'4 8.2
2017-Nov-19 21:30N 47°47' W 003°60'5 7.8
2017-Nov-19 20:50N 47°43' W 004°05'29 3.0
2017-Nov-19 11:20N 47°17' W 004°22'2 2.9
2017-Nov-19 10:48N 47°18' W 004°20'1 3.2
2017-Nov-19 10:30N 47°19' W 004°20'2 3.5
2017-Nov-19 09:52N 47°20' W 004°17'1 3.5
2017-Nov-19 09:29N 47°20' W 004°15'2 3.1
2017-Nov-19 08:57N 47°19' W 004°13'7 2.3
2017-Nov-19 05:51N 47°15' W 004°05'1 3.3
2017-Nov-19 05:26N 47°14' W 004°03'1 3.3
2017-Nov-19 04:59N 47°14' W 004°01'2 3.1
2017-Nov-19 04:24N 47°13' W 003°58'1 3.2
2017-Nov-19 03:58N 47°12' W 003°58'2 3.4
2017-Nov-19 03:30N 47°10' W 003°57'1 1.4
2017-Nov-19 02:55N 47°10' W 003°56'18 2.4
2017-Nov-18 19:30N 47°19' W 004°19'2 2.9
2017-Nov-18 18:59N 47°18' W 004°20'1 2.9
2017-Nov-18 18:30N 47°17' W 004°19'2 3.3
2017-Nov-18 17:56N 47°15' W 004°18'1 2.0
2017-Nov-18 17:15N 47°15' W 004°20'1 3.0
2017-Nov-18 17:00N 47°14' W 004°21'2 3.1
2017-Nov-18 16:30N 47°13' W 004°22'2 3.1
2017-Nov-18 15:53N 47°12' W 004°24'4 2.5
2017-Nov-18 14:19N 47°11' W 004°30'1 3.1
2017-Nov-18 13:51N 47°12' W 004°31'2 2.7
2017-Nov-18 13:02N 47°15' W 004°29'0 1.7
2017-Nov-18 12:57N 47°15' W 004°29'1 2.9
2017-Nov-18 12:30N 47°16' W 004°28'1 2.8
2017-Nov-18 12:00N 47°17' W 004°27'1 2.8
2017-Nov-18 11:30N 47°18' W 004°25'2 3.2
2017-Nov-18 11:00N 47°18' W 004°23'2 3.2
2017-Nov-18 10:30N 47°18' W 004°21'2 3.3
2017-Nov-18 10:00N 47°19' W 004°18'2 3.4
2017-Nov-18 09:29N 47°19' W 004°16'2 3.5
2017-Nov-18 09:00N 47°19' W 004°13'1 2.5
2017-Nov-18 08:30N 47°18' W 004°12'2 3.1
2017-Nov-18 07:58N 47°16' W 004°12'1 2.9
2017-Nov-18 07:30N 47°15' W 004°13'4 2.9
2017-Nov-18 06:08N 47°15' W 004°19'0 2.9
2017-Nov-18 06:00N 47°15' W 004°19'1 2.9
2017-Nov-18 05:30N 47°14' W 004°21'3 2.8
2017-Nov-18 04:25N 47°12' W 004°24'1 3.0
2017-Nov-18 04:00N 47°11' W 004°25'1 1.8
2017-Nov-18 03:29N 47°10' W 004°26'6 2.0
2017-Nov-18 00:34N 47°16' W 004°28'0 3.0
2017-Nov-18 00:27N 47°16' W 004°28'2 2.9
2017-Nov-17 23:51N 47°17' W 004°25'2 3.0
2017-Nov-17 23:21N 47°18' W 004°24'1 3.2
2017-Nov-17 23:00N 47°18' W 004°22'2 3.4
2017-Nov-17 22:30N 47°17' W 004°20'3 3.4
2017-Nov-17 21:35N 47°15' W 004°17'3 4.3
2017-Nov-17 20:57N 47°15' W 004°13'20 4.1
2017-Nov-17 16:06N 47°34' W 004°09'4 8.4
2017-Nov-17 15:36N 47°39' W 004°08'1 8.4
2017-Nov-17 15:26N 47°40' W 004°08'5 8.0
2017-Nov-17 14:52N 47°44' W 004°04'3 7.7
2017-Nov-17 14:30N 47°46' W 004°01'5 8.1
2017-Nov-17 13:55N 47°50' W 003°57'3 0.2
2017-Nov-17 00:18N 47°53' W 003°55'0 0.0
2017-Nov-16 22:46N 47°53' W 003°55'2 6.6
2017-Nov-16 22:30N 47°51' W 003°56'4 8.1
2017-Nov-16 21:58N 47°47' W 003°60'4 8.1
2017-Nov-16 21:25N 47°44' W 004°04'4 7.9
2017-Nov-16 20:54N 47°41' W 004°07'3 7.8
2017-Nov-16 20:30N 47°37' W 004°07'5 7.8
2017-Nov-16 19:53N 47°33' W 004°07'4 7.8
2017-Nov-16 19:23N 47°29' W 004°08'3 7.7
2017-Nov-16 18:59N 47°26' W 004°08'3 7.1
2017-Nov-16 18:30N 47°22' W 004°10'2 2.9
2017-Nov-16 17:44N 47°20' W 004°11'3 2.7
2017-Nov-16 16:33N 47°18' W 004°13'0 3.0
2017-Nov-16 16:30N 47°18' W 004°14'1 2.9
2017-Nov-16 15:59N 47°17' W 004°15'2 2.5
2017-Nov-16 15:13N 47°15' W 004°16'1 3.2
2017-Nov-16 15:00N 47°15' W 004°15'2 3.3
2017-Nov-16 14:30N 47°15' W 004°13'2 3.4
2017-Nov-16 14:00N 47°15' W 004°10'1 2.3
2017-Nov-16 13:29N 47°15' W 004°08'2 3.3
2017-Nov-16 13:00N 47°15' W 004°06'2 3.3
2017-Nov-16 12:30N 47°15' W 004°04'2 3.3
2017-Nov-16 12:00N 47°14' W 004°01'2 3.2
2017-Nov-16 11:30N 47°13' W 003°59'2 3.3
2017-Nov-16 11:00N 47°13' W 003°57'2 3.4
2017-Nov-16 10:30N 47°13' W 003°55'2 3.5
2017-Nov-16 10:00N 47°11' W 003°54'2 3.3
2017-Nov-16 09:26N 47°09' W 003°53'1 2.3
2017-Nov-16 08:59N 47°08' W 003°53'3 2.7
2017-Nov-16 08:02N 47°06' W 003°55'1 3.0
2017-Nov-16 07:41N 47°07' W 003°56'1 3.0
2017-Nov-16 07:23N 47°08' W 003°57'2 3.1
2017-Nov-16 06:44N 47°09' W 003°59'1 3.2
2017-Nov-16 06:20N 47°10' W 004°00'4 3.4
2017-Nov-16 05:16N 47°14' W 004°01'1 3.6
2017-Nov-16 04:55N 47°14' W 004°03'1 2.0
2017-Nov-16 04:28N 47°15' W 004°04'2 3.0
2017-Nov-16 03:55N 47°15' W 004°07'2 3.1
2017-Nov-16 03:22N 47°15' W 004°09'4 3.2
2017-Nov-16 02:02N 47°15' W 004°15'0 3.3
2017-Nov-16 01:55N 47°15' W 004°16'2 3.3
2017-Nov-16 01:25N 47°15' W 004°18'1 3.3
2017-Nov-16 01:00N 47°15' W 004°21'4 3.2
2017-Nov-15 23:53N 47°16' W 004°26'2 3.5
2017-Nov-15 23:20N 47°16' W 004°29'0 0.2
2017-Nov-15 22:57N 47°16' W 004°29'2 3.3
2017-Nov-15 22:24N 47°16' W 004°26'2 3.4
2017-Nov-15 21:57N 47°16' W 004°24'2 3.4
2017-Nov-15 21:28N 47°15' W 004°21'2 2.5
2017-Nov-15 20:49N 47°14' W 004°21'2 3.2
2017-Nov-15 20:20N 47°13' W 004°23'4 3.1
2017-Nov-15 18:55N 47°10' W 004°27'1 2.9
2017-Nov-15 18:27N 47°09' W 004°29'1 2.1
2017-Nov-15 18:00N 47°09' W 004°30'2 2.2
2017-Nov-15 16:57N 47°07' W 004°32'2 2.7
2017-Nov-15 16:11N 47°06' W 004°35'3 2.4
2017-Nov-15 14:47N 47°05' W 004°39'1 1.7
2017-Nov-15 14:28N 47°05' W 004°39'2 3.2
2017-Nov-15 13:56N 47°06' W 004°36'2 3.3
2017-Nov-15 13:22N 47°06' W 004°34'1 3.3
2017-Nov-15 12:57N 47°07' W 004°32'2 3.2
2017-Nov-15 12:28N 47°08' W 004°30'2 3.2
2017-Nov-15 11:57N 47°09' W 004°29'2 3.1
2017-Nov-15 11:21N 47°10' W 004°27'1 3.0
2017-Nov-15 11:00N 47°11' W 004°25'3 2.8
2017-Nov-15 10:05N 47°13' W 004°23'0 1.5
2017-Nov-15 09:57N 47°13' W 004°23'5 1.6
2017-Nov-15 06:57N 47°15' W 004°29'3 3.1
2017-Nov-15 05:56N 47°12' W 004°31'1 1.7
2017-Nov-15 05:30N 47°12' W 004°31'1 2.3
2017-Nov-15 04:59N 47°11' W 004°30'1 3.0
2017-Nov-15 04:31N 47°09' W 004°30'3 2.8
2017-Nov-15 03:27N 47°07' W 004°32'4 3.0
2017-Nov-15 02:07N 47°03' W 004°35'18 0.8
2017-Nov-14 03:38N 47°16' W 004°17'2 3.6
2017-Nov-14 03:04N 47°17' W 004°15'3 3.6
2017-Nov-14 02:14N 47°19' W 004°11'8 6.3
2017-Nov-14 00:56N 47°26' W 004°05'4 8.2
2017-Nov-14 00:27N 47°29' W 004°02'4 8.1
2017-Nov-13 23:59N 47°32' W 003°59'7 8.0
2017-Nov-13 23:08N 47°38' W 003°54'1 7.9
2017-Nov-13 23:00N 47°39' W 003°54'5 8.2
2017-Nov-13 22:20N 47°45' W 003°55'3 8.2
2017-Nov-13 21:56N 47°48' W 003°56'  
2017-Nov-11 14:25N 47°09' W 004°29'1 2.8
2017-Nov-11 13:56N 47°10' W 004°28'2 3.1
2017-Nov-11 13:26N 47°10' W 004°26'2 3.2
2017-Nov-11 12:57N 47°12' W 004°25'2 3.2
2017-Nov-11 12:28N 47°13' W 004°23'19 0.6
2017-Nov-10 06:36N 47°31' W 004°30'14 3.4
2017-Nov-10 02:28N 47°20' W 004°18'1 3.1
2017-Nov-10 01:59N 47°18' W 004°17'2 3.0
2017-Nov-10 01:22N 47°16' W 004°18'3 3.1
2017-Nov-10 00:30N 47°15' W 004°15'  
Track history (hours):
 
Tides and Currents Weather Stations Pressure Air Temp Water Temp Dewpoint Dewpoint Depression Visibility Wind Speed Wind Dir Waves Ship Positions

F/V Liberty-s

Last reported at 2017-Nov-20 00:29 UTC. Time now 2017-Nov-20 23:10 UTC.
Position N 47°46' W 003°55'.

Type: Fishing. MMSI: 228387000.

Date/timePositionNaut miles runAvg speedWind from/ knotsBaromVisibWave heightAir tempDewpointWater temp
2017-Nov-20 00:29N 47°46' W 003°55'4 7.6
2017-Nov-20 00:00N 47°50' W 003°56'2 1.1
2017-Nov-19 22:11N 47°52' W 003°55'1 8.2
2017-Nov-19 22:00N 47°51' W 003°56'4 8.2
2017-Nov-19 21:30N 47°47' W 003°60'5 7.8
2017-Nov-19 20:50N 47°43' W 004°05'29 3.0
2017-Nov-19 11:20N 47°17' W 004°22'2 2.9
2017-Nov-19 10:48N 47°18' W 004°20'1 3.2
2017-Nov-19 10:30N 47°19' W 004°20'2 3.5
2017-Nov-19 09:52N 47°20' W 004°17'1 3.5
2017-Nov-19 09:29N 47°20' W 004°15'2 3.1
2017-Nov-19 08:57N 47°19' W 004°13'7 2.3
2017-Nov-19 05:51N 47°15' W 004°05'1 3.3
2017-Nov-19 05:26N 47°14' W 004°03'1 3.3
2017-Nov-19 04:59N 47°14' W 004°01'2 3.1
2017-Nov-19 04:24N 47°13' W 003°58'1 3.2
2017-Nov-19 03:58N 47°12' W 003°58'2 3.4
2017-Nov-19 03:30N 47°10' W 003°57'1 1.4
2017-Nov-19 02:55N 47°10' W 003°56'18 2.4
2017-Nov-18 19:30N 47°19' W 004°19'2 2.9
2017-Nov-18 18:59N 47°18' W 004°20'1 2.9
2017-Nov-18 18:30N 47°17' W 004°19'2 3.3
2017-Nov-18 17:56N 47°15' W 004°18'1 2.0
2017-Nov-18 17:15N 47°15' W 004°20'1 3.0
2017-Nov-18 17:00N 47°14' W 004°21'2 3.1
2017-Nov-18 16:30N 47°13' W 004°22'2 3.1
2017-Nov-18 15:53N 47°12' W 004°24'4 2.5
2017-Nov-18 14:19N 47°11' W 004°30'1 3.1
2017-Nov-18 13:51N 47°12' W 004°31'2 2.7
2017-Nov-18 13:02N 47°15' W 004°29'0 1.7
2017-Nov-18 12:57N 47°15' W 004°29'1 2.9
2017-Nov-18 12:30N 47°16' W 004°28'1 2.8
2017-Nov-18 12:00N 47°17' W 004°27'1 2.8
2017-Nov-18 11:30N 47°18' W 004°25'2 3.2
2017-Nov-18 11:00N 47°18' W 004°23'2 3.2
2017-Nov-18 10:30N 47°18' W 004°21'2 3.3
2017-Nov-18 10:00N 47°19' W 004°18'2 3.4
2017-Nov-18 09:29N 47°19' W 004°16'2 3.5
2017-Nov-18 09:00N 47°19' W 004°13'1 2.5
2017-Nov-18 08:30N 47°18' W 004°12'2 3.1
2017-Nov-18 07:58N 47°16' W 004°12'1 2.9
2017-Nov-18 07:30N 47°15' W 004°13'4 2.9
2017-Nov-18 06:08N 47°15' W 004°19'0 2.9
2017-Nov-18 06:00N 47°15' W 004°19'1 2.9
2017-Nov-18 05:30N 47°14' W 004°21'3 2.8
2017-Nov-18 04:25N 47°12' W 004°24'1 3.0
2017-Nov-18 04:00N 47°11' W 004°25'1 1.8
2017-Nov-18 03:29N 47°10' W 004°26'6 2.0
2017-Nov-18 00:34N 47°16' W 004°28'0 3.0
2017-Nov-18 00:27N 47°16' W 004°28'2 2.9
2017-Nov-17 23:51N 47°17' W 004°25'2 3.0
2017-Nov-17 23:21N 47°18' W 004°24'1 3.2
2017-Nov-17 23:00N 47°18' W 004°22'2 3.4
2017-Nov-17 22:30N 47°17' W 004°20'3 3.4
2017-Nov-17 21:35N 47°15' W 004°17'3 4.3
2017-Nov-17 20:57N 47°15' W 004°13'20 4.1
2017-Nov-17 16:06N 47°34' W 004°09'4 8.4
2017-Nov-17 15:36N 47°39' W 004°08'1 8.4
2017-Nov-17 15:26N 47°40' W 004°08'5 8.0
2017-Nov-17 14:52N 47°44' W 004°04'3 7.7
2017-Nov-17 14:30N 47°46' W 004°01'5 8.1
2017-Nov-17 13:55N 47°50' W 003°57'3 0.2
2017-Nov-17 00:18N 47°53' W 003°55'0 0.0
2017-Nov-16 22:46N 47°53' W 003°55'2 6.6
2017-Nov-16 22:30N 47°51' W 003°56'4 8.1
2017-Nov-16 21:58N 47°47' W 003°60'4 8.1
2017-Nov-16 21:25N 47°44' W 004°04'4 7.9
2017-Nov-16 20:54N 47°41' W 004°07'3 7.8
2017-Nov-16 20:30N 47°37' W 004°07'5 7.8
2017-Nov-16 19:53N 47°33' W 004°07'4 7.8
2017-Nov-16 19:23N 47°29' W 004°08'3 7.7
2017-Nov-16 18:59N 47°26' W 004°08'3 7.1
2017-Nov-16 18:30N 47°22' W 004°10'2 2.9
2017-Nov-16 17:44N 47°20' W 004°11'3 2.7
2017-Nov-16 16:33N 47°18' W 004°13'0 3.0
2017-Nov-16 16:30N 47°18' W 004°14'1 2.9
2017-Nov-16 15:59N 47°17' W 004°15'2 2.5
2017-Nov-16 15:13N 47°15' W 004°16'1 3.2
2017-Nov-16 15:00N 47°15' W 004°15'2 3.3
2017-Nov-16 14:30N 47°15' W 004°13'2 3.4
2017-Nov-16 14:00N 47°15' W 004°10'1 2.3
2017-Nov-16 13:29N 47°15' W 004°08'2 3.3
2017-Nov-16 13:00N 47°15' W 004°06'2 3.3
2017-Nov-16 12:30N 47°15' W 004°04'2 3.3
2017-Nov-16 12:00N 47°14' W 004°01'2 3.2
2017-Nov-16 11:30N 47°13' W 003°59'2 3.3
2017-Nov-16 11:00N 47°13' W 003°57'2 3.4
2017-Nov-16 10:30N 47°13' W 003°55'2 3.5
2017-Nov-16 10:00N 47°11' W 003°54'2 3.3
2017-Nov-16 09:26N 47°09' W 003°53'1 2.3
2017-Nov-16 08:59N 47°08' W 003°53'3 2.7
2017-Nov-16 08:02N 47°06' W 003°55'1 3.0
2017-Nov-16 07:41N 47°07' W 003°56'1 3.0
2017-Nov-16 07:23N 47°08' W 003°57'2 3.1
2017-Nov-16 06:44N 47°09' W 003°59'1 3.2
2017-Nov-16 06:20N 47°10' W 004°00'4 3.4
2017-Nov-16 05:16N 47°14' W 004°01'1 3.6
2017-Nov-16 04:55N 47°14' W 004°03'1 2.0
2017-Nov-16 04:28N 47°15' W 004°04'2 3.0
2017-Nov-16 03:55N 47°15' W 004°07'2 3.1
2017-Nov-16 03:22N 47°15' W 004°09'4 3.2
2017-Nov-16 02:02N 47°15' W 004°15'0 3.3
2017-Nov-16 01:55N 47°15' W 004°16'2 3.3
2017-Nov-16 01:25N 47°15' W 004°18'1 3.3
2017-Nov-16 01:00N 47°15' W 004°21'4 3.2
2017-Nov-15 23:53N 47°16' W 004°26'2 3.5
2017-Nov-15 23:20N 47°16' W 004°29'0 0.2
2017-Nov-15 22:57N 47°16' W 004°29'2 3.3
2017-Nov-15 22:24N 47°16' W 004°26'2 3.4
2017-Nov-15 21:57N 47°16' W 004°24'2 3.4
2017-Nov-15 21:28N 47°15' W 004°21'2 2.5
2017-Nov-15 20:49N 47°14' W 004°21'2 3.2
2017-Nov-15 20:20N 47°13' W 004°23'4 3.1
2017-Nov-15 18:55N 47°10' W 004°27'1 2.9
2017-Nov-15 18:27N 47°09' W 004°29'1 2.1
2017-Nov-15 18:00N 47°09' W 004°30'2 2.2
2017-Nov-15 16:57N 47°07' W 004°32'2 2.7
2017-Nov-15 16:11N 47°06' W 004°35'3 2.4
2017-Nov-15 14:47N 47°05' W 004°39'1 1.7
2017-Nov-15 14:28N 47°05' W 004°39'2 3.2
2017-Nov-15 13:56N 47°06' W 004°36'2 3.3
2017-Nov-15 13:22N 47°06' W 004°34'1 3.3
2017-Nov-15 12:57N 47°07' W 004°32'2 3.2
2017-Nov-15 12:28N 47°08' W 004°30'2 3.2
2017-Nov-15 11:57N 47°09' W 004°29'2 3.1
2017-Nov-15 11:21N 47°10' W 004°27'1 3.0
2017-Nov-15 11:00N 47°11' W 004°25'3 2.8
2017-Nov-15 10:05N 47°13' W 004°23'0 1.5
2017-Nov-15 09:57N 47°13' W 004°23'5 1.6
2017-Nov-15 06:57N 47°15' W 004°29'3 3.1
2017-Nov-15 05:56N 47°12' W 004°31'1 1.7
2017-Nov-15 05:30N 47°12' W 004°31'1 2.3
2017-Nov-15 04:59N 47°11' W 004°30'1 3.0
2017-Nov-15 04:31N 47°09' W 004°30'3 2.8
2017-Nov-15 03:27N 47°07' W 004°32'4 3.0
2017-Nov-15 02:07N 47°03' W 004°35'18 0.8
2017-Nov-14 03:38N 47°16' W 004°17'2 3.6
2017-Nov-14 03:04N 47°17' W 004°15'3 3.6
2017-Nov-14 02:14N 47°19' W 004°11'8 6.3
2017-Nov-14 00:56N 47°26' W 004°05'4 8.2
2017-Nov-14 00:27N 47°29' W 004°02'4 8.1
2017-Nov-13 23:59N 47°32' W 003°59'7 8.0
2017-Nov-13 23:08N 47°38' W 003°54'1 7.9
2017-Nov-13 23:00N 47°39' W 003°54'5 8.2
2017-Nov-13 22:20N 47°45' W 003°55'3 8.2
2017-Nov-13 21:56N 47°48' W 003°56'  
2017-Nov-11 14:25N 47°09' W 004°29'1 2.8
2017-Nov-11 13:56N 47°10' W 004°28'2 3.1
2017-Nov-11 13:26N 47°10' W 004°26'2 3.2
2017-Nov-11 12:57N 47°12' W 004°25'2 3.2
2017-Nov-11 12:28N 47°13' W 004°23'19 0.6
2017-Nov-10 06:36N 47°31' W 004°30'14 3.4
2017-Nov-10 02:28N 47°20' W 004°18'1 3.1
2017-Nov-10 01:59N 47°18' W 004°17'2 3.0
2017-Nov-10 01:22N 47°16' W 004°18'3 3.1
2017-Nov-10 00:30N 47°15' W 004°15'  

Dump ship's entire track history